sensor_id;sensor_type;location;lat;lon;timestamp;P1;durP1;ratioP1;P2;durP2;ratioP2
76310;SDS011;65120;59.304;18.294;2023-04-25T00:01:45;4.45;;;1.00;;
76310;SDS011;65120;59.304;18.294;2023-04-25T00:04:12;1.23;;;1.02;;
76310;SDS011;65120;59.304;18.294;2023-04-25T00:06:39;1.92;;;0.75;;
76310;SDS011;65120;59.304;18.294;2023-04-25T00:09:06;1.75;;;0.88;;
76310;SDS011;65120;59.304;18.294;2023-04-25T00:11:35;1.35;;;0.70;;
76310;SDS011;65120;59.304;18.294;2023-04-25T00:14:02;1.58;;;0.70;;
76310;SDS011;65120;59.304;18.294;2023-04-25T00:16:31;1.75;;;0.70;;
76310;SDS011;65120;59.304;18.294;2023-04-25T00:18:59;2.92;;;1.10;;
76310;SDS011;65120;59.304;18.294;2023-04-25T00:21:27;0.80;;;0.55;;
76310;SDS011;65120;59.304;18.294;2023-04-25T00:23:54;2.47;;;1.25;;
76310;SDS011;65120;59.304;18.294;2023-04-25T00:26:21;2.05;;;0.68;;
76310;SDS011;65120;59.304;18.294;2023-04-25T00:28:48;0.68;;;0.25;;
76310;SDS011;65120;59.304;18.294;2023-04-25T00:31:15;4.07;;;0.65;;
76310;SDS011;65120;59.304;18.294;2023-04-25T00:33:43;1.95;;;0.70;;
76310;SDS011;65120;59.304;18.294;2023-04-25T00:36:10;3.08;;;0.75;;
76310;SDS011;65120;59.304;18.294;2023-04-25T00:38:37;1.08;;;0.60;;
76310;SDS011;65120;59.304;18.294;2023-04-25T00:41:04;1.75;;;0.63;;
76310;SDS011;65120;59.304;18.294;2023-04-25T00:43:32;2.15;;;0.98;;
76310;SDS011;65120;59.304;18.294;2023-04-25T00:46:00;0.70;;;0.50;;
76310;SDS011;65120;59.304;18.294;2023-04-25T00:48:27;1.25;;;0.50;;
76310;SDS011;65120;59.304;18.294;2023-04-25T00:50:57;2.97;;;0.40;;
76310;SDS011;65120;59.304;18.294;2023-04-25T00:53:26;2.60;;;0.40;;
76310;SDS011;65120;59.304;18.294;2023-04-25T00:55:54;0.82;;;0.45;;
76310;SDS011;65120;59.304;18.294;2023-04-25T00:58:21;1.00;;;0.40;;
76310;SDS011;65120;59.304;18.294;2023-04-25T01:00:49;0.50;;;0.50;;
76310;SDS011;65120;59.304;18.294;2023-04-25T01:03:19;0.50;;;0.40;;
76310;SDS011;65120;59.304;18.294;2023-04-25T01:05:46;2.17;;;0.50;;
76310;SDS011;65120;59.304;18.294;2023-04-25T01:08:14;0.95;;;0.40;;
76310;SDS011;65120;59.304;18.294;2023-04-25T01:10:41;0.80;;;0.30;;
76310;SDS011;65120;59.304;18.294;2023-04-25T01:13:08;1.38;;;0.40;;
76310;SDS011;65120;59.304;18.294;2023-04-25T01:15:35;0.50;;;0.30;;
76310;SDS011;65120;59.304;18.294;2023-04-25T01:18:02;2.97;;;0.30;;
76310;SDS011;65120;59.304;18.294;2023-04-25T01:20:30;0.60;;;0.20;;
76310;SDS011;65120;59.304;18.294;2023-04-25T01:23:00;0.30;;;0.30;;
76310;SDS011;65120;59.304;18.294;2023-04-25T01:25:29;1.52;;;0.30;;
76310;SDS011;65120;59.304;18.294;2023-04-25T01:27:56;3.90;;;0.85;;
76310;SDS011;65120;59.304;18.294;2023-04-25T01:30:24;0.50;;;0.22;;
76310;SDS011;65120;59.304;18.294;2023-04-25T01:32:52;0.50;;;0.20;;
76310;SDS011;65120;59.304;18.294;2023-04-25T01:35:21;0.20;;;0.20;;
76310;SDS011;65120;59.304;18.294;2023-04-25T01:37:49;0.47;;;0.30;;
76310;SDS011;65120;59.304;18.294;2023-04-25T01:40:17;3.13;;;0.20;;
76310;SDS011;65120;59.304;18.294;2023-04-25T01:42:46;0.22;;;0.20;;
76310;SDS011;65120;59.304;18.294;2023-04-25T01:45:13;1.48;;;0.20;;
76310;SDS011;65120;59.304;18.294;2023-04-25T01:47:40;0.13;;;0.13;;
76310;SDS011;65120;59.304;18.294;2023-04-25T01:50:09;0.28;;;0.20;;
76310;SDS011;65120;59.304;18.294;2023-04-25T01:52:36;0.35;;;0.20;;
76310;SDS011;65120;59.304;18.294;2023-04-25T01:55:04;0.35;;;0.20;;
76310;SDS011;65120;59.304;18.294;2023-04-25T01:57:33;0.40;;;0.20;;
76310;SDS011;65120;59.304;18.294;2023-04-25T02:00:02;1.73;;;0.20;;
76310;SDS011;65120;59.304;18.294;2023-04-25T02:02:32;1.85;;;0.20;;
76310;SDS011;65120;59.304;18.294;2023-04-25T02:04:59;2.35;;;0.30;;
76310;SDS011;65120;59.304;18.294;2023-04-25T02:07:25;0.30;;;0.20;;
76310;SDS011;65120;59.304;18.294;2023-04-25T02:09:52;0.28;;;0.28;;
76310;SDS011;65120;59.304;18.294;2023-04-25T02:12:19;0.65;;;0.20;;
76310;SDS011;65120;59.304;18.294;2023-04-25T02:14:47;0.30;;;0.30;;
76310;SDS011;65120;59.304;18.294;2023-04-25T02:17:14;0.20;;;0.20;;
76310;SDS011;65120;59.304;18.294;2023-04-25T02:19:42;0.40;;;0.30;;
76310;SDS011;65120;59.304;18.294;2023-04-25T02:22:09;0.28;;;0.17;;
76310;SDS011;65120;59.304;18.294;2023-04-25T02:24:37;0.98;;;0.40;;
76310;SDS011;65120;59.304;18.294;2023-04-25T02:27:04;2.83;;;0.20;;
76310;SDS011;65120;59.304;18.294;2023-04-25T02:29:31;2.03;;;0.20;;
76310;SDS011;65120;59.304;18.294;2023-04-25T02:31:59;0.50;;;0.20;;
76310;SDS011;65120;59.304;18.294;2023-04-25T02:34:26;0.30;;;0.20;;
76310;SDS011;65120;59.304;18.294;2023-04-25T02:36:52;0.60;;;0.20;;
76310;SDS011;65120;59.304;18.294;2023-04-25T02:39:20;0.30;;;0.20;;
76310;SDS011;65120;59.304;18.294;2023-04-25T02:41:47;0.35;;;0.10;;
76310;SDS011;65120;59.304;18.294;2023-04-25T02:44:14;0.32;;;0.30;;
76310;SDS011;65120;59.304;18.294;2023-04-25T02:46:41;0.40;;;0.25;;
76310;SDS011;65120;59.304;18.294;2023-04-25T02:49:09;0.20;;;0.20;;
76310;SDS011;65120;59.304;18.294;2023-04-25T02:51:36;0.25;;;0.20;;
76310;SDS011;65120;59.304;18.294;2023-04-25T02:54:03;0.20;;;0.10;;
76310;SDS011;65120;59.304;18.294;2023-04-25T02:56:30;0.20;;;0.20;;
76310;SDS011;65120;59.304;18.294;2023-04-25T02:58:56;0.25;;;0.25;;
76310;SDS011;65120;59.304;18.294;2023-04-25T03:01:23;0.30;;;0.20;;
76310;SDS011;65120;59.304;18.294;2023-04-25T03:03:50;0.30;;;0.20;;
76310;SDS011;65120;59.304;18.294;2023-04-25T03:06:18;1.60;;;0.30;;
76310;SDS011;65120;59.304;18.294;2023-04-25T03:08:45;0.40;;;0.20;;
76310;SDS011;65120;59.304;18.294;2023-04-25T03:11:12;0.40;;;0.20;;
76310;SDS011;65120;59.304;18.294;2023-04-25T03:13:39;1.20;;;0.20;;
76310;SDS011;65120;59.304;18.294;2023-04-25T03:16:06;3.60;;;0.20;;
76310;SDS011;65120;59.304;18.294;2023-04-25T03:18:32;0.30;;;0.20;;
76310;SDS011;65120;59.304;18.294;2023-04-25T03:20:59;0.10;;;0.10;;
76310;SDS011;65120;59.304;18.294;2023-04-25T03:23:28;0.20;;;0.20;;
76310;SDS011;65120;59.304;18.294;2023-04-25T03:25:55;0.20;;;0.15;;
76310;SDS011;65120;59.304;18.294;2023-04-25T03:28:22;0.35;;;0.20;;
76310;SDS011;65120;59.304;18.294;2023-04-25T03:30:49;0.80;;;0.30;;
76310;SDS011;65120;59.304;18.294;2023-04-25T03:33:15;1.35;;;0.30;;
76310;SDS011;65120;59.304;18.294;2023-04-25T03:35:42;0.30;;;0.20;;
76310;SDS011;65120;59.304;18.294;2023-04-25T03:38:09;0.30;;;0.20;;
76310;SDS011;65120;59.304;18.294;2023-04-25T03:40:37;1.83;;;0.20;;
76310;SDS011;65120;59.304;18.294;2023-04-25T03:43:04;1.65;;;0.20;;
76310;SDS011;65120;59.304;18.294;2023-04-25T03:45:31;1.85;;;0.20;;
76310;SDS011;65120;59.304;18.294;2023-04-25T03:47:58;0.43;;;0.30;;
76310;SDS011;65120;59.304;18.294;2023-04-25T03:50:25;2.08;;;0.32;;
76310;SDS011;65120;59.304;18.294;2023-04-25T03:52:52;0.60;;;0.40;;
76310;SDS011;65120;59.304;18.294;2023-04-25T03:55:18;0.50;;;0.30;;
76310;SDS011;65120;59.304;18.294;2023-04-25T03:57:47;3.10;;;0.50;;
76310;SDS011;65120;59.304;18.294;2023-04-25T04:00:14;1.65;;;0.32;;
76310;SDS011;65120;59.304;18.294;2023-04-25T04:02:41;2.00;;;0.30;;
76310;SDS011;65120;59.304;18.294;2023-04-25T04:05:08;0.30;;;0.10;;
76310;SDS011;65120;59.304;18.294;2023-04-25T04:07:35;2.22;;;0.40;;
76310;SDS011;65120;59.304;18.294;2023-04-25T04:10:05;0.43;;;0.30;;
76310;SDS011;65120;59.304;18.294;2023-04-25T04:12:32;0.40;;;0.38;;
76310;SDS011;65120;59.304;18.294;2023-04-25T04:15:01;0.80;;;0.40;;
76310;SDS011;65120;59.304;18.294;2023-04-25T04:17:28;6.93;;;0.50;;
76310;SDS011;65120;59.304;18.294;2023-04-25T04:19:55;2.45;;;0.63;;
76310;SDS011;65120;59.304;18.294;2023-04-25T04:22:22;1.55;;;0.50;;
76310;SDS011;65120;59.304;18.294;2023-04-25T04:24:50;2.45;;;0.50;;
76310;SDS011;65120;59.304;18.294;2023-04-25T04:27:17;3.33;;;0.50;;
76310;SDS011;65120;59.304;18.294;2023-04-25T04:29:44;1.58;;;0.50;;
76310;SDS011;65120;59.304;18.294;2023-04-25T04:32:13;1.80;;;0.70;;
76310;SDS011;65120;59.304;18.294;2023-04-25T04:34:42;0.82;;;0.50;;
76310;SDS011;65120;59.304;18.294;2023-04-25T04:37:09;0.70;;;0.43;;
76310;SDS011;65120;59.304;18.294;2023-04-25T04:39:38;1.80;;;0.50;;
76310;SDS011;65120;59.304;18.294;2023-04-25T04:42:05;2.28;;;0.88;;
76310;SDS011;65120;59.304;18.294;2023-04-25T04:44:32;2.33;;;0.77;;
76310;SDS011;65120;59.304;18.294;2023-04-25T04:47:00;1.42;;;0.63;;
76310;SDS011;65120;59.304;18.294;2023-04-25T04:49:30;5.53;;;0.75;;
76310;SDS011;65120;59.304;18.294;2023-04-25T04:51:57;2.13;;;0.75;;
76310;SDS011;65120;59.304;18.294;2023-04-25T04:54:24;2.38;;;0.85;;
76310;SDS011;65120;59.304;18.294;2023-04-25T04:56:52;1.42;;;0.95;;
76310;SDS011;65120;59.304;18.294;2023-04-25T04:59:19;1.88;;;1.00;;
76310;SDS011;65120;59.304;18.294;2023-04-25T05:01:46;4.85;;;1.38;;
76310;SDS011;65120;59.304;18.294;2023-04-25T05:04:13;3.45;;;0.93;;
76310;SDS011;65120;59.304;18.294;2023-04-25T05:06:41;2.72;;;1.00;;
76310;SDS011;65120;59.304;18.294;2023-04-25T05:09:09;4.13;;;1.10;;
76310;SDS011;65120;59.304;18.294;2023-04-25T05:11:36;1.73;;;1.02;;
76310;SDS011;65120;59.304;18.294;2023-04-25T05:14:02;1.38;;;1.00;;
76310;SDS011;65120;59.304;18.294;2023-04-25T05:16:29;1.38;;;0.85;;
76310;SDS011;65120;59.304;18.294;2023-04-25T05:18:56;4.32;;;0.63;;
76310;SDS011;65120;59.304;18.294;2023-04-25T05:21:23;1.15;;;0.80;;
76310;SDS011;65120;59.304;18.294;2023-04-25T05:23:51;1.17;;;0.80;;
76310;SDS011;65120;59.304;18.294;2023-04-25T05:26:18;2.63;;;1.25;;
76310;SDS011;65120;59.304;18.294;2023-04-25T05:28:45;2.75;;;1.08;;
76310;SDS011;65120;59.304;18.294;2023-04-25T05:31:12;1.42;;;0.70;;
76310;SDS011;65120;59.304;18.294;2023-04-25T05:33:39;2.58;;;1.25;;
76310;SDS011;65120;59.304;18.294;2023-04-25T05:36:06;1.85;;;0.88;;
76310;SDS011;65120;59.304;18.294;2023-04-25T05:38:34;2.78;;;1.13;;
76310;SDS011;65120;59.304;18.294;2023-04-25T05:41:02;2.00;;;0.95;;
76310;SDS011;65120;59.304;18.294;2023-04-25T05:43:29;4.78;;;2.03;;
76310;SDS011;65120;59.304;18.294;2023-04-25T05:45:56;2.88;;;1.25;;
76310;SDS011;65120;59.304;18.294;2023-04-25T05:48:22;1.95;;;1.02;;
76310;SDS011;65120;59.304;18.294;2023-04-25T05:50:49;1.35;;;0.90;;
76310;SDS011;65120;59.304;18.294;2023-04-25T05:53:17;5.30;;;1.33;;
76310;SDS011;65120;59.304;18.294;2023-04-25T05:55:44;1.33;;;0.77;;
76310;SDS011;65120;59.304;18.294;2023-04-25T05:58:12;1.95;;;0.90;;
76310;SDS011;65120;59.304;18.294;2023-04-25T06:00:39;1.33;;;0.77;;
76310;SDS011;65120;59.304;18.294;2023-04-25T06:03:07;2.38;;;1.50;;
76310;SDS011;65120;59.304;18.294;2023-04-25T06:05:34;5.75;;;1.17;;
76310;SDS011;65120;59.304;18.294;2023-04-25T06:08:01;3.55;;;1.00;;
76310;SDS011;65120;59.304;18.294;2023-04-25T06:10:28;1.33;;;0.90;;
76310;SDS011;65120;59.304;18.294;2023-04-25T06:12:55;1.33;;;0.80;;
76310;SDS011;65120;59.304;18.294;2023-04-25T06:15:23;4.00;;;2.05;;
76310;SDS011;65120;59.304;18.294;2023-04-25T06:17:50;3.80;;;1.17;;
76310;SDS011;65120;59.304;18.294;2023-04-25T06:20:17;1.83;;;0.90;;
76310;SDS011;65120;59.304;18.294;2023-04-25T06:22:48;4.22;;;1.33;;
76310;SDS011;65120;59.304;18.294;2023-04-25T06:25:15;3.40;;;1.45;;
76310;SDS011;65120;59.304;18.294;2023-04-25T06:27:42;2.00;;;1.40;;
76310;SDS011;65120;59.304;18.294;2023-04-25T06:30:09;3.13;;;0.88;;
76310;SDS011;65120;59.304;18.294;2023-04-25T06:32:38;1.58;;;0.70;;
76310;SDS011;65120;59.304;18.294;2023-04-25T06:35:05;1.63;;;0.68;;
76310;SDS011;65120;59.304;18.294;2023-04-25T06:37:33;2.40;;;0.77;;
76310;SDS011;65120;59.304;18.294;2023-04-25T06:39:59;3.08;;;0.85;;
76310;SDS011;65120;59.304;18.294;2023-04-25T06:42:27;6.00;;;1.02;;
76310;SDS011;65120;59.304;18.294;2023-04-25T06:44:54;1.20;;;0.90;;
76310;SDS011;65120;59.304;18.294;2023-04-25T06:47:21;2.25;;;0.82;;
76310;SDS011;65120;59.304;18.294;2023-04-25T06:49:49;1.05;;;0.73;;
76310;SDS011;65120;59.304;18.294;2023-04-25T06:52:16;3.92;;;1.13;;
76310;SDS011;65120;59.304;18.294;2023-04-25T06:54:43;2.65;;;1.17;;
76310;SDS011;65120;59.304;18.294;2023-04-25T06:57:10;1.73;;;1.05;;
76310;SDS011;65120;59.304;18.294;2023-04-25T06:59:37;6.03;;;1.17;;
76310;SDS011;65120;59.304;18.294;2023-04-25T07:02:04;2.53;;;0.98;;
76310;SDS011;65120;59.304;18.294;2023-04-25T07:04:31;3.70;;;1.10;;
76310;SDS011;65120;59.304;18.294;2023-04-25T07:06:59;1.00;;;0.80;;
76310;SDS011;65120;59.304;18.294;2023-04-25T07:09:27;0.88;;;0.63;;
76310;SDS011;65120;59.304;18.294;2023-04-25T07:11:54;1.40;;;0.85;;
76310;SDS011;65120;59.304;18.294;2023-04-25T07:14:21;2.33;;;0.90;;
76310;SDS011;65120;59.304;18.294;2023-04-25T07:16:49;3.30;;;1.00;;
76310;SDS011;65120;59.304;18.294;2023-04-25T07:19:15;3.00;;;1.05;;
76310;SDS011;65120;59.304;18.294;2023-04-25T07:21:42;4.88;;;1.38;;
76310;SDS011;65120;59.304;18.294;2023-04-25T07:24:10;1.15;;;0.75;;
76310;SDS011;65120;59.304;18.294;2023-04-25T07:26:37;3.25;;;1.02;;
76310;SDS011;65120;59.304;18.294;2023-04-25T07:29:04;2.00;;;1.02;;
76310;SDS011;65120;59.304;18.294;2023-04-25T07:31:31;2.90;;;1.10;;
76310;SDS011;65120;59.304;18.294;2023-04-25T07:33:58;3.38;;;1.25;;
76310;SDS011;65120;59.304;18.294;2023-04-25T07:36:24;3.63;;;1.20;;
76310;SDS011;65120;59.304;18.294;2023-04-25T07:38:52;3.30;;;1.30;;
76310;SDS011;65120;59.304;18.294;2023-04-25T07:41:20;2.22;;;1.23;;
76310;SDS011;65120;59.304;18.294;2023-04-25T07:43:48;3.30;;;1.05;;
76310;SDS011;65120;59.304;18.294;2023-04-25T07:46:14;2.78;;;0.95;;
76310;SDS011;65120;59.304;18.294;2023-04-25T07:48:41;3.72;;;1.40;;
76310;SDS011;65120;59.304;18.294;2023-04-25T07:51:08;3.13;;;0.95;;
76310;SDS011;65120;59.304;18.294;2023-04-25T07:53:35;4.88;;;1.02;;
76310;SDS011;65120;59.304;18.294;2023-04-25T07:56:02;2.40;;;1.58;;
76310;SDS011;65120;59.304;18.294;2023-04-25T07:58:31;3.40;;;1.58;;
76310;SDS011;65120;59.304;18.294;2023-04-25T08:00:57;3.17;;;1.60;;
76310;SDS011;65120;59.304;18.294;2023-04-25T08:03:24;1.80;;;1.50;;
76310;SDS011;65120;59.304;18.294;2023-04-25T08:05:51;4.03;;;1.92;;
76310;SDS011;65120;59.304;18.294;2023-04-25T08:08:18;7.07;;;2.60;;
76310;SDS011;65120;59.304;18.294;2023-04-25T08:10:45;2.28;;;1.45;;
76310;SDS011;65120;59.304;18.294;2023-04-25T08:13:13;5.22;;;1.83;;
76310;SDS011;65120;59.304;18.294;2023-04-25T08:15:41;5.28;;;1.42;;
76310;SDS011;65120;59.304;18.294;2023-04-25T08:18:08;3.15;;;1.95;;
76310;SDS011;65120;59.304;18.294;2023-04-25T08:20:35;4.15;;;1.77;;
76310;SDS011;65120;59.304;18.294;2023-04-25T08:23:02;3.20;;;1.88;;
76310;SDS011;65120;59.304;18.294;2023-04-25T08:25:28;3.03;;;1.90;;
76310;SDS011;65120;59.304;18.294;2023-04-25T08:27:55;3.85;;;2.17;;
76310;SDS011;65120;59.304;18.294;2023-04-25T08:30:24;4.72;;;3.38;;
76310;SDS011;65120;59.304;18.294;2023-04-25T08:32:53;3.05;;;1.40;;
76310;SDS011;65120;59.304;18.294;2023-04-25T08:35:20;3.00;;;2.22;;
76310;SDS011;65120;59.304;18.294;2023-04-25T08:37:47;2.67;;;2.10;;
76310;SDS011;65120;59.304;18.294;2023-04-25T08:40:14;4.80;;;1.60;;
76310;SDS011;65120;59.304;18.294;2023-04-25T08:42:42;1.92;;;1.35;;
76310;SDS011;65120;59.304;18.294;2023-04-25T08:45:09;5.40;;;2.35;;
76310;SDS011;65120;59.304;18.294;2023-04-25T08:47:37;3.40;;;2.10;;
76310;SDS011;65120;59.304;18.294;2023-04-25T08:50:08;3.42;;;1.98;;
76310;SDS011;65120;59.304;18.294;2023-04-25T08:52:36;4.22;;;2.55;;
76310;SDS011;65120;59.304;18.294;2023-04-25T08:55:06;5.43;;;1.95;;
76310;SDS011;65120;59.304;18.294;2023-04-25T08:57:35;5.15;;;2.20;;
76310;SDS011;65120;59.304;18.294;2023-04-25T09:00:03;3.67;;;1.95;;
76310;SDS011;65120;59.304;18.294;2023-04-25T09:02:33;4.28;;;2.17;;
76310;SDS011;65120;59.304;18.294;2023-04-25T09:05:01;4.68;;;2.15;;
76310;SDS011;65120;59.304;18.294;2023-04-25T09:07:30;5.18;;;2.17;;
76310;SDS011;65120;59.304;18.294;2023-04-25T09:09:57;4.30;;;2.17;;
76310;SDS011;65120;59.304;18.294;2023-04-25T09:12:27;5.03;;;2.80;;
76310;SDS011;65120;59.304;18.294;2023-04-25T09:15:02;7.38;;;2.53;;
76310;SDS011;65120;59.304;18.294;2023-04-25T09:17:30;5.55;;;2.83;;
76310;SDS011;65120;59.304;18.294;2023-04-25T09:20:04;4.85;;;2.58;;
76310;SDS011;65120;59.304;18.294;2023-04-25T09:22:34;5.03;;;2.72;;
76310;SDS011;65120;59.304;18.294;2023-04-25T09:25:02;2.85;;;2.28;;
76310;SDS011;65120;59.304;18.294;2023-04-25T09:27:31;10.18;;;2.47;;
76310;SDS011;65120;59.304;18.294;2023-04-25T09:29:59;4.75;;;2.97;;
76310;SDS011;65120;59.304;18.294;2023-04-25T09:32:26;6.53;;;2.65;;
76310;SDS011;65120;59.304;18.294;2023-04-25T09:34:54;7.03;;;2.95;;
76310;SDS011;65120;59.304;18.294;2023-04-25T09:37:21;4.72;;;3.00;;
76310;SDS011;65120;59.304;18.294;2023-04-25T09:39:52;5.22;;;2.47;;
76310;SDS011;65120;59.304;18.294;2023-04-25T09:42:21;5.88;;;2.33;;
76310;SDS011;65120;59.304;18.294;2023-04-25T09:44:51;6.63;;;2.42;;
76310;SDS011;65120;59.304;18.294;2023-04-25T09:47:18;4.15;;;2.10;;
76310;SDS011;65120;59.304;18.294;2023-04-25T09:49:48;7.07;;;2.05;;
76310;SDS011;65120;59.304;18.294;2023-04-25T09:52:16;4.35;;;2.45;;
76310;SDS011;65120;59.304;18.294;2023-04-25T09:54:44;6.35;;;3.05;;
76310;SDS011;65120;59.304;18.294;2023-04-25T09:57:13;5.18;;;3.28;;
76310;SDS011;65120;59.304;18.294;2023-04-25T09:59:44;7.28;;;2.85;;
76310;SDS011;65120;59.304;18.294;2023-04-25T10:02:13;5.53;;;3.10;;
76310;SDS011;65120;59.304;18.294;2023-04-25T10:04:41;4.72;;;2.75;;
76310;SDS011;65120;59.304;18.294;2023-04-25T10:07:08;4.00;;;2.38;;
76310;SDS011;65120;59.304;18.294;2023-04-25T10:09:37;3.33;;;2.13;;
76310;SDS011;65120;59.304;18.294;2023-04-25T10:12:06;5.60;;;2.05;;
76310;SDS011;65120;59.304;18.294;2023-04-25T10:14:35;3.10;;;2.22;;
76310;SDS011;65120;59.304;18.294;2023-04-25T10:17:02;3.25;;;2.35;;
76310;SDS011;65120;59.304;18.294;2023-04-25T10:19:30;2.40;;;1.67;;
76310;SDS011;65120;59.304;18.294;2023-04-25T10:22:01;2.95;;;1.67;;
76310;SDS011;65120;59.304;18.294;2023-04-25T10:24:32;3.40;;;2.65;;
76310;SDS011;65120;59.304;18.294;2023-04-25T10:26:59;4.10;;;2.40;;
76310;SDS011;65120;59.304;18.294;2023-04-25T10:29:27;6.07;;;3.15;;
76310;SDS011;65120;59.304;18.294;2023-04-25T10:31:55;7.28;;;3.47;;
76310;SDS011;65120;59.304;18.294;2023-04-25T10:34:23;5.25;;;2.72;;
76310;SDS011;65120;59.304;18.294;2023-04-25T10:36:52;5.22;;;3.17;;
76310;SDS011;65120;59.304;18.294;2023-04-25T10:39:22;5.47;;;3.53;;
76310;SDS011;65120;59.304;18.294;2023-04-25T10:41:53;4.38;;;3.03;;
76310;SDS011;65120;59.304;18.294;2023-04-25T10:44:23;4.45;;;3.08;;
76310;SDS011;65120;59.304;18.294;2023-04-25T10:46:55;3.25;;;2.65;;
76310;SDS011;65120;59.304;18.294;2023-04-25T10:49:30;3.85;;;2.60;;
76310;SDS011;65120;59.304;18.294;2023-04-25T10:54:42;9.48;;;3.05;;
76310;SDS011;65120;59.304;18.294;2023-04-25T11:00:10;5.55;;;2.70;;
76310;SDS011;65120;59.304;18.294;2023-04-25T11:02:45;6.90;;;3.80;;
76310;SDS011;65120;59.304;18.294;2023-04-25T11:05:18;5.35;;;3.00;;
76310;SDS011;65120;59.304;18.294;2023-04-25T11:07:51;7.88;;;2.90;;
76310;SDS011;65120;59.304;18.294;2023-04-25T11:10:25;3.78;;;2.47;;
76310;SDS011;65120;59.304;18.294;2023-04-25T11:12:52;5.30;;;3.25;;
76310;SDS011;65120;59.304;18.294;2023-04-25T11:15:19;3.80;;;2.58;;
76310;SDS011;65120;59.304;18.294;2023-04-25T11:17:47;5.78;;;3.28;;
76310;SDS011;65120;59.304;18.294;2023-04-25T11:20:15;4.10;;;2.30;;
76310;SDS011;65120;59.304;18.294;2023-04-25T11:22:43;5.47;;;2.67;;
76310;SDS011;65120;59.304;18.294;2023-04-25T11:25:11;7.05;;;3.38;;
76310;SDS011;65120;59.304;18.294;2023-04-25T11:27:49;5.50;;;3.08;;
76310;SDS011;65120;59.304;18.294;2023-04-25T11:30:16;3.63;;;3.03;;
76310;SDS011;65120;59.304;18.294;2023-04-25T11:32:43;7.13;;;2.58;;
76310;SDS011;65120;59.304;18.294;2023-04-25T11:35:12;4.22;;;2.85;;
76310;SDS011;65120;59.304;18.294;2023-04-25T11:37:40;4.32;;;2.70;;
76310;SDS011;65120;59.304;18.294;2023-04-25T11:40:07;3.83;;;2.60;;
76310;SDS011;65120;59.304;18.294;2023-04-25T11:42:36;6.07;;;3.15;;
76310;SDS011;65120;59.304;18.294;2023-04-25T11:45:05;5.75;;;3.17;;
76310;SDS011;65120;59.304;18.294;2023-04-25T11:47:33;6.50;;;3.10;;
76310;SDS011;65120;59.304;18.294;2023-04-25T11:50:00;5.57;;;3.30;;
76310;SDS011;65120;59.304;18.294;2023-04-25T11:52:39;4.68;;;2.97;;
76310;SDS011;65120;59.304;18.294;2023-04-25T11:55:07;5.03;;;2.67;;
76310;SDS011;65120;59.304;18.294;2023-04-25T11:57:36;3.60;;;2.55;;
76310;SDS011;65120;59.304;18.294;2023-04-25T12:00:05;3.33;;;2.25;;
76310;SDS011;65120;59.304;18.294;2023-04-25T12:02:36;2.53;;;2.15;;
76310;SDS011;65120;59.304;18.294;2023-04-25T12:05:05;2.72;;;1.80;;
76310;SDS011;65120;59.304;18.294;2023-04-25T12:07:33;3.10;;;2.03;;
76310;SDS011;65120;59.304;18.294;2023-04-25T12:10:05;2.60;;;2.30;;
76310;SDS011;65120;59.304;18.294;2023-04-25T12:12:33;1.67;;;1.38;;
76310;SDS011;65120;59.304;18.294;2023-04-25T12:15:10;1.83;;;1.73;;
76310;SDS011;65120;59.304;18.294;2023-04-25T12:17:40;2.67;;;1.77;;
76310;SDS011;65120;59.304;18.294;2023-04-25T12:20:09;2.83;;;1.58;;
76310;SDS011;65120;59.304;18.294;2023-04-25T12:22:37;2.75;;;2.05;;
76310;SDS011;65120;59.304;18.294;2023-04-25T12:25:05;4.90;;;2.20;;
76310;SDS011;65120;59.304;18.294;2023-04-25T12:27:33;3.30;;;2.80;;
76310;SDS011;65120;59.304;18.294;2023-04-25T12:30:01;5.15;;;3.42;;
76310;SDS011;65120;59.304;18.294;2023-04-25T12:32:28;3.90;;;3.47;;
76310;SDS011;65120;59.304;18.294;2023-04-25T12:34:55;3.17;;;2.88;;
76310;SDS011;65120;59.304;18.294;2023-04-25T12:37:22;3.00;;;2.70;;
76310;SDS011;65120;59.304;18.294;2023-04-25T12:39:49;3.60;;;2.45;;
76310;SDS011;65120;59.304;18.294;2023-04-25T12:42:18;2.25;;;2.05;;
76310;SDS011;65120;59.304;18.294;2023-04-25T12:44:45;3.20;;;2.53;;
76310;SDS011;65120;59.304;18.294;2023-04-25T12:47:12;3.33;;;3.03;;
76310;SDS011;65120;59.304;18.294;2023-04-25T12:49:40;4.80;;;3.40;;
76310;SDS011;65120;59.304;18.294;2023-04-25T12:52:07;3.33;;;2.92;;
76310;SDS011;65120;59.304;18.294;2023-04-25T12:54:33;4.85;;;2.90;;
76310;SDS011;65120;59.304;18.294;2023-04-25T12:57:00;3.80;;;2.53;;
76310;SDS011;65120;59.304;18.294;2023-04-25T12:59:29;3.97;;;2.65;;
76310;SDS011;65120;59.304;18.294;2023-04-25T13:01:56;6.10;;;2.70;;
76310;SDS011;65120;59.304;18.294;2023-04-25T13:04:23;2.20;;;1.95;;
76310;SDS011;65120;59.304;18.294;2023-04-25T13:06:49;4.15;;;2.40;;
76310;SDS011;65120;59.304;18.294;2023-04-25T13:09:16;3.58;;;2.78;;
76310;SDS011;65120;59.304;18.294;2023-04-25T13:11:43;3.20;;;2.90;;
76310;SDS011;65120;59.304;18.294;2023-04-25T13:14:11;2.92;;;2.05;;
76310;SDS011;65120;59.304;18.294;2023-04-25T13:16:39;6.35;;;2.15;;
76310;SDS011;65120;59.304;18.294;2023-04-25T13:19:06;5.13;;;2.30;;
76310;SDS011;65120;59.304;18.294;2023-04-25T13:21:36;3.38;;;2.20;;
76310;SDS011;65120;59.304;18.294;2023-04-25T13:24:03;2.22;;;2.08;;
76310;SDS011;65120;59.304;18.294;2023-04-25T13:26:30;3.03;;;1.58;;
76310;SDS011;65120;59.304;18.294;2023-04-25T13:28:57;3.17;;;1.92;;
76310;SDS011;65120;59.304;18.294;2023-04-25T13:31:25;2.03;;;1.77;;
76310;SDS011;65120;59.304;18.294;2023-04-25T13:33:53;2.85;;;1.80;;
76310;SDS011;65120;59.304;18.294;2023-04-25T13:36:20;4.55;;;1.75;;
76310;SDS011;65120;59.304;18.294;2023-04-25T13:38:47;2.47;;;1.75;;
76310;SDS011;65120;59.304;18.294;2023-04-25T13:41:14;1.80;;;1.70;;
76310;SDS011;65120;59.304;18.294;2023-04-25T13:43:43;2.15;;;1.60;;
76310;SDS011;65120;59.304;18.294;2023-04-25T13:46:12;2.60;;;2.22;;
76310;SDS011;65120;59.304;18.294;2023-04-25T13:48:40;3.22;;;2.38;;
76310;SDS011;65120;59.304;18.294;2023-04-25T13:51:13;1.40;;;1.10;;
76310;SDS011;65120;59.304;18.294;2023-04-25T13:53:42;1.20;;;1.02;;
76310;SDS011;65120;59.304;18.294;2023-04-25T13:56:09;1.63;;;0.75;;
76310;SDS011;65120;59.304;18.294;2023-04-25T13:58:37;1.50;;;1.13;;
76310;SDS011;65120;59.304;18.294;2023-04-25T14:01:04;1.63;;;0.90;;
76310;SDS011;65120;59.304;18.294;2023-04-25T14:03:31;3.70;;;1.00;;
76310;SDS011;65120;59.304;18.294;2023-04-25T14:05:58;1.67;;;0.95;;
76310;SDS011;65120;59.304;18.294;2023-04-25T14:08:26;1.42;;;0.80;;
76310;SDS011;65120;59.304;18.294;2023-04-25T14:10:53;2.90;;;1.00;;
76310;SDS011;65120;59.304;18.294;2023-04-25T14:13:20;4.72;;;1.85;;
76310;SDS011;65120;59.304;18.294;2023-04-25T14:15:48;1.13;;;0.77;;
76310;SDS011;65120;59.304;18.294;2023-04-25T14:18:15;1.35;;;0.85;;
76310;SDS011;65120;59.304;18.294;2023-04-25T14:20:42;2.17;;;0.70;;
76310;SDS011;65120;59.304;18.294;2023-04-25T14:23:09;1.60;;;0.90;;
76310;SDS011;65120;59.304;18.294;2023-04-25T14:25:37;1.65;;;0.95;;
76310;SDS011;65120;59.304;18.294;2023-04-25T14:28:04;1.35;;;1.00;;
76310;SDS011;65120;59.304;18.294;2023-04-25T14:30:31;1.95;;;1.10;;
76310;SDS011;65120;59.304;18.294;2023-04-25T14:32:58;1.05;;;0.70;;
76310;SDS011;65120;59.304;18.294;2023-04-25T14:35:25;2.88;;;1.08;;
76310;SDS011;65120;59.304;18.294;2023-04-25T14:37:52;2.72;;;1.20;;
76310;SDS011;65120;59.304;18.294;2023-04-25T14:40:20;1.67;;;0.90;;
76310;SDS011;65120;59.304;18.294;2023-04-25T14:42:49;4.00;;;1.10;;